createdAt,value
2018-12-11T00:00:35.120Z,101321.39
2018-12-11T00:03:42.699Z,101312.83
2018-12-11T00:07:00.258Z,101328.03
2018-12-11T00:10:17.948Z,101328.08
2018-12-11T00:13:35.392Z,101331.82
2018-12-11T00:16:52.901Z,101325.13
2018-12-11T00:20:00.842Z,101327.23
2018-12-11T00:23:08.537Z,101326.02
2018-12-11T00:26:16.104Z,101324.37
2018-12-11T00:29:33.668Z,101323.08
2018-12-11T00:32:41.568Z,101323.51
2018-12-11T00:35:49.139Z,101323.14
2018-12-11T00:39:08.308Z,101320.98
2018-12-11T00:42:15.872Z,101321.24
2018-12-11T00:45:33.487Z,101320.50
2018-12-11T00:48:41.561Z,101320.02
2018-12-11T00:51:49.564Z,101335.58
2018-12-11T00:55:07.784Z,101333.46
2018-12-11T00:58:15.340Z,101323.56
2018-12-11T01:01:22.927Z,101329.53
2018-12-11T01:04:40.378Z,101335.82
2018-12-11T01:07:58.340Z,101338.34
2018-12-11T01:11:05.889Z,101337.51
2018-12-11T01:14:13.396Z,101345.64
2018-12-11T01:17:20.845Z,101348.65
2018-12-11T01:20:28.495Z,101341.89
2018-12-11T01:23:35.955Z,101348.85
2018-12-11T01:26:43.468Z,101353.45
2018-12-11T01:29:51.095Z,101347.90
2018-12-11T01:32:58.560Z,101360.30
2018-12-11T01:36:16.096Z,101359.65
2018-12-11T01:39:50.653Z,101361.45
2018-12-11T01:43:08.326Z,101366.61
2018-12-11T01:46:26.117Z,101364.81
2018-12-11T01:49:44.271Z,101376.48
2018-12-11T01:52:51.764Z,101378.64
2018-12-11T01:55:59.602Z,101386.07
2018-12-11T01:59:07.865Z,101381.92
2018-12-11T02:02:15.383Z,101391.09
2018-12-11T02:05:22.924Z,101377.41
2018-12-11T02:08:40.830Z,101390.25
2018-12-11T02:11:58.744Z,101391.59
2018-12-11T02:15:16.379Z,101395.09
2018-12-11T02:18:34.254Z,101396.37
2018-12-11T02:21:52.056Z,101398.10
2018-12-11T02:25:10.261Z,101408.42
2018-12-11T02:28:17.802Z,101404.41
2018-12-11T02:31:25.444Z,101407.48
2018-12-11T02:34:32.924Z,101404.50
2018-12-11T02:37:50.736Z,101415.27
2018-12-11T02:41:08.604Z,101410.16
2018-12-11T02:44:16.095Z,101414.87
2018-12-11T02:47:23.675Z,101413.14
2018-12-11T02:50:32.262Z,101420.36
2018-12-11T02:53:39.791Z,101420.42
2018-12-11T02:56:47.323Z,101423.05
2018-12-11T02:59:55.015Z,101419.09
2018-12-11T03:03:03.028Z,101420.88
2018-12-11T03:06:10.534Z,101423.10
2018-12-11T03:09:18.404Z,101420.97
2018-12-11T03:12:26.570Z,101432.96
2018-12-11T03:15:34.750Z,101422.36
2018-12-11T03:18:43.760Z,101427.13
2018-12-11T03:21:51.484Z,101430.55
2018-12-11T03:25:09.431Z,101432.78
2018-12-11T03:28:27.243Z,101434.16
2018-12-11T03:31:45.043Z,101436.24
2018-12-11T03:38:08.408Z,101447.00
2018-12-11T03:41:15.956Z,101447.89
2018-12-11T03:44:23.401Z,101451.36
2018-12-11T03:47:30.880Z,101452.59
2018-12-11T03:50:38.385Z,101461.27
2018-12-11T03:53:57.707Z,101463.89
2018-12-11T03:57:15.492Z,101460.92
2018-12-11T04:00:33.732Z,101463.09
2018-12-11T04:03:41.237Z,101463.48
2018-12-11T04:06:48.728Z,101464.38
2018-12-11T04:09:56.238Z,101460.61
2018-12-11T04:13:03.699Z,101460.16
2018-12-11T04:16:21.892Z,101471.36
2018-12-11T04:19:29.661Z,101467.05
2018-12-11T04:22:37.476Z,101473.56
2018-12-11T04:25:55.613Z,101483.59
2018-12-11T04:29:04.683Z,101480.81
2018-12-11T04:32:12.239Z,101484.68
2018-12-11T04:35:19.755Z,101491.20
2018-12-11T04:38:27.324Z,101492.52
2018-12-11T04:41:44.764Z,101493.00
2018-12-11T04:44:52.233Z,101498.12
2018-12-11T04:48:00.147Z,101497.67
2018-12-11T04:51:07.693Z,101491.19
2018-12-11T04:54:25.443Z,101502.38
2018-12-11T04:57:43.559Z,101506.61
2018-12-11T05:00:51.071Z,101507.97
2018-12-11T05:03:58.571Z,101504.96
2018-12-11T05:07:06.565Z,101515.27
2018-12-11T05:10:14.101Z,101511.91
2018-12-11T05:13:21.564Z,101521.88
2018-12-11T05:16:29.048Z,101521.81
2018-12-11T05:19:37.097Z,101520.92
2018-12-11T05:22:44.538Z,101524.38
2018-12-11T05:25:52.202Z,101522.69
2018-12-11T05:28:59.664Z,101529.09
2018-12-11T05:32:07.451Z,101529.94
2018-12-11T05:35:15.536Z,101536.89
2018-12-11T05:38:23.079Z,101539.53
2018-12-11T05:41:41.787Z,101537.80
2018-12-11T05:44:49.264Z,101537.80
2018-12-11T05:47:56.707Z,101527.09
2018-12-11T05:51:04.179Z,101542.98
2018-12-11T05:54:21.907Z,101541.77
2018-12-11T05:57:39.655Z,101546.56
2018-12-11T06:00:57.477Z,101549.14
2018-12-11T06:04:15.666Z,101545.69
2018-12-11T06:07:23.264Z,101550.86
2018-12-11T06:10:31.347Z,101556.45
2018-12-11T06:13:48.484Z,101555.54
2018-12-11T06:17:06.224Z,101553.44
2018-12-11T06:20:24.122Z,101562.88
2018-12-11T06:23:41.791Z,101561.53
2018-12-11T06:27:01.096Z,101563.73
2018-12-11T06:30:19.267Z,101576.19
2018-12-11T06:33:36.964Z,101577.91
2018-12-11T06:36:55.134Z,101586.86
2018-12-11T06:40:02.751Z,101592.91
2018-12-11T06:43:10.315Z,101595.89
2018-12-11T06:46:17.775Z,101589.52
2018-12-11T06:49:36.081Z,101592.55
2018-12-11T06:52:53.809Z,101598.91
2018-12-11T06:56:10.959Z,101605.70
2018-12-11T06:59:28.796Z,101615.59
2018-12-11T07:02:46.507Z,101619.39
2018-12-11T07:06:04.294Z,101621.99
2018-12-11T07:09:22.088Z,101625.47
2018-12-11T07:12:41.368Z,101641.33
2018-12-11T07:15:59.092Z,101634.06
2018-12-11T07:19:17.019Z,101634.04
2018-12-11T07:22:34.620Z,101633.55
2018-12-11T07:25:52.592Z,101637.48
2018-12-11T07:29:00.032Z,101639.23
2018-12-11T07:32:07.530Z,101638.82
2018-12-11T07:35:14.980Z,101643.94
2018-12-11T07:38:22.490Z,101649.04
2018-12-11T07:44:45.998Z,101652.91
2018-12-11T07:48:04.195Z,101648.50
2018-12-11T07:51:11.840Z,101650.28
2018-12-11T07:54:19.850Z,101649.00
2018-12-11T07:57:37.893Z,101659.75
2018-12-11T08:00:45.499Z,101659.80
2018-12-11T08:03:53.028Z,101668.39
2018-12-11T08:07:00.508Z,101675.70
2018-12-11T08:13:24.329Z,101693.67
2018-12-11T08:16:42.724Z,101700.53
2018-12-11T08:19:50.268Z,101700.15
2018-12-11T08:22:57.831Z,101701.84
2018-12-11T08:26:05.733Z,101707.34
2018-12-11T08:29:13.270Z,101715.09
2018-12-11T08:32:21.247Z,101711.64
2018-12-11T08:35:38.711Z,101721.89
2018-12-11T08:38:55.879Z,101719.34
2018-12-11T08:42:15.172Z,101728.80
2018-12-11T08:45:32.415Z,101731.73
2018-12-11T08:48:49.709Z,101730.91
2018-12-11T08:52:06.964Z,101737.71
2018-12-11T08:55:24.236Z,101746.66
2018-12-11T08:58:41.529Z,101744.45
2018-12-11T09:01:58.833Z,101746.89
2018-12-11T09:05:16.054Z,101749.05
2018-12-11T09:08:33.555Z,101752.92
2018-12-11T09:11:41.388Z,101755.47
2018-12-11T09:14:48.829Z,101763.96
2018-12-11T09:17:56.296Z,101756.20
2018-12-11T09:21:03.780Z,101761.27
2018-12-11T09:24:21.616Z,101762.45
2018-12-11T09:27:39.321Z,101761.80
2018-12-11T09:30:56.589Z,101766.78
2018-12-11T09:34:14.632Z,101770.69
2018-12-11T09:40:38.424Z,101784.01
2018-12-11T09:43:47.036Z,101776.44
2018-12-11T09:47:04.868Z,101777.27
2018-12-11T09:50:13.275Z,101787.16
2018-12-11T09:53:20.800Z,101788.23
2018-12-11T09:56:38.544Z,101785.78
2018-12-11T09:59:55.725Z,101785.89
2018-12-11T10:03:13.408Z,101791.55
2018-12-11T10:06:20.907Z,101798.84
2018-12-11T10:09:28.416Z,101795.73
2018-12-11T10:12:35.899Z,101790.08
2018-12-11T10:18:59.407Z,101794.58
2018-12-11T10:22:17.223Z,101794.55
2018-12-11T10:25:34.907Z,101797.38
2018-12-11T10:28:52.732Z,101796.05
2018-12-11T10:32:16.488Z,101802.41
2018-12-11T10:35:34.260Z,101801.48
2018-12-11T10:38:52.029Z,101798.88
2018-12-11T10:42:09.818Z,101799.06
2018-12-11T10:45:27.573Z,101800.86
2018-12-11T10:48:45.348Z,101808.02
2018-12-11T10:52:03.120Z,101803.20
2018-12-11T10:55:20.932Z,101802.16
2018-12-11T10:58:38.775Z,101804.52
2018-12-11T11:01:58.544Z,101810.70
2018-12-11T11:05:07.015Z,101813.44
2018-12-11T11:08:24.345Z,101817.86
2018-12-11T11:11:42.069Z,101820.63
2018-12-11T11:14:49.877Z,101813.20
2018-12-11T11:17:57.320Z,101821.98
2018-12-11T11:21:04.792Z,101814.62
2018-12-11T11:24:22.025Z,101823.17
2018-12-11T11:27:39.813Z,101818.47
2018-12-11T11:30:47.292Z,101820.77
2018-12-11T11:33:56.757Z,101823.81
2018-12-11T11:37:14.152Z,101827.55
2018-12-11T11:40:31.452Z,101826.63
2018-12-11T11:43:48.828Z,101820.78
2018-12-11T11:47:06.900Z,101830.55
2018-12-11T11:50:17.096Z,101838.49
2018-12-11T11:53:24.545Z,101838.11
2018-12-11T11:56:32.007Z,101832.28
2018-12-11T11:59:39.474Z,101833.26
2018-12-11T12:02:56.852Z,101842.84
2018-12-11T12:06:14.195Z,101840.07
2018-12-11T12:09:31.464Z,101856.99
2018-12-11T12:12:48.744Z,101852.73
2018-12-11T12:16:06.019Z,101846.83
2018-12-11T12:19:23.296Z,101846.97
2018-12-11T12:22:40.622Z,101855.16
2018-12-11T12:25:57.828Z,101856.91
2018-12-11T12:29:15.099Z,101860.89
2018-12-11T12:32:32.394Z,101861.17
2018-12-11T12:35:49.647Z,101867.77
2018-12-11T12:39:09.535Z,101867.86
2018-12-11T12:42:17.011Z,101874.17
2018-12-11T12:45:24.469Z,101867.64
2018-12-11T12:48:41.805Z,101875.98
2018-12-11T12:51:59.146Z,101881.20
2018-12-11T12:55:16.384Z,101888.97
2018-12-11T12:58:33.676Z,101891.93
2018-12-11T13:01:50.900Z,101894.03
2018-12-11T13:05:08.590Z,101896.22
2018-12-11T13:08:16.039Z,101895.91
2018-12-11T13:11:23.505Z,101899.47
2018-12-11T13:14:30.968Z,101901.66
2018-12-11T13:17:38.433Z,101898.66
2018-12-11T13:20:56.400Z,101903.34
2018-12-11T13:24:14.227Z,101910.24
2018-12-11T13:27:31.960Z,101918.34
2018-12-11T13:30:49.882Z,101918.00
2018-12-11T13:34:07.642Z,101917.11
2018-12-11T13:37:25.400Z,101916.77
2018-12-11T13:40:43.969Z,101925.02
2018-12-11T13:43:52.007Z,101926.31
2018-12-11T13:47:09.913Z,101928.48
2018-12-11T13:50:17.352Z,101935.41
2018-12-11T13:53:25.101Z,101932.42
2018-12-11T13:56:32.556Z,101933.67
2018-12-11T13:59:49.735Z,101938.84
2018-12-11T14:03:08.773Z,101942.77
2018-12-11T14:06:26.351Z,101944.01
2018-12-11T14:09:39.784Z,101950.12
2018-12-11T14:12:47.251Z,101951.85
2018-12-11T14:15:54.685Z,101960.55
2018-12-11T14:19:02.189Z,101965.70
2018-12-11T14:22:09.932Z,101964.42
2018-12-11T14:25:28.065Z,101968.17
2018-12-11T14:28:35.564Z,101973.07
2018-12-11T14:35:02.075Z,101975.97
2018-12-11T14:38:09.532Z,101973.83
2018-12-11T14:41:17.135Z,101970.84
2018-12-11T14:44:34.472Z,101975.12
2018-12-11T14:47:51.769Z,101978.95
2018-12-11T14:51:09.052Z,101976.09
2018-12-11T14:54:26.441Z,101982.47
2018-12-11T14:57:43.772Z,101982.11
2018-12-11T15:01:01.076Z,101982.59
2018-12-11T15:04:18.352Z,101987.97
2018-12-11T15:07:36.392Z,101989.22
2018-12-11T15:10:44.374Z,101996.53
2018-12-11T15:14:02.025Z,102000.77
2018-12-11T15:17:09.672Z,101993.06
2018-12-11T15:20:17.227Z,101990.47
2018-12-11T15:23:24.772Z,101996.97
2018-12-11T15:26:32.200Z,101993.14
2018-12-11T15:29:49.896Z,101994.06
2018-12-11T15:32:57.344Z,101995.68
2018-12-11T15:36:05.270Z,102000.41
2018-12-11T15:39:12.739Z,102003.47
2018-12-11T15:42:30.047Z,102000.48
2018-12-11T15:45:47.182Z,102010.48
2018-12-11T15:49:04.513Z,102007.94
2018-12-11T15:52:21.711Z,102012.55
2018-12-11T15:55:39.076Z,102018.09
2018-12-11T15:58:56.341Z,102010.45
2018-12-11T16:02:13.587Z,102017.31
2018-12-11T16:05:30.853Z,102013.80
2018-12-11T16:08:48.107Z,102015.94
2018-12-11T16:12:06.376Z,102016.35
2018-12-11T16:15:14.273Z,102021.11
2018-12-11T16:18:31.451Z,102015.02
2018-12-11T16:21:48.760Z,102022.33
2018-12-11T16:25:07.465Z,102019.82
2018-12-11T16:28:14.896Z,102021.14
2018-12-11T16:31:32.192Z,102021.22
2018-12-11T16:34:49.843Z,102026.42
2018-12-11T16:37:57.730Z,102027.81
2018-12-11T16:41:05.183Z,102030.77
2018-12-11T16:44:12.729Z,102034.61
2018-12-11T16:47:30.429Z,102038.92
2018-12-11T16:50:39.051Z,102037.23
2018-12-11T16:53:46.521Z,102047.46
2018-12-11T16:56:54.043Z,102044.88
2018-12-11T17:00:01.507Z,102054.80
2018-12-11T17:03:09.142Z,102052.15
2018-12-11T17:06:26.376Z,102060.78
2018-12-11T17:09:44.057Z,102062.99
2018-12-11T17:12:51.584Z,102065.95
2018-12-11T17:15:59.124Z,102071.45
2018-12-11T17:19:06.607Z,102080.94
2018-12-11T17:22:14.103Z,102080.03
2018-12-11T17:25:31.301Z,102081.45
2018-12-11T17:28:48.589Z,102087.50
2018-12-11T17:32:05.896Z,102098.30
2018-12-11T17:35:32.280Z,102098.77
2018-12-11T17:38:49.577Z,102099.19
2018-12-11T17:42:09.536Z,102097.59
2018-12-11T17:45:26.788Z,102098.88
2018-12-11T17:48:41.455Z,102107.89
2018-12-11T17:51:54.466Z,102106.60
2018-12-11T17:55:11.732Z,102115.26
2018-12-11T17:58:29.363Z,102117.86
2018-12-11T18:01:38.096Z,102124.34
2018-12-11T18:04:45.555Z,102122.27
2018-12-11T18:07:53.044Z,102136.47
2018-12-11T18:11:00.493Z,102138.63
2018-12-11T18:14:08.012Z,102140.38
2018-12-11T18:17:15.612Z,102140.86
2018-12-11T18:20:23.061Z,102143.00
2018-12-11T18:23:30.595Z,102141.72
2018-12-11T18:26:38.040Z,102146.41
2018-12-11T18:29:45.521Z,102142.11
2018-12-11T18:32:53.104Z,102148.52
2018-12-11T18:36:10.304Z,102146.81
2018-12-11T18:39:27.608Z,102153.67
2018-12-11T18:42:44.975Z,102152.39
2018-12-11T18:46:02.129Z,102160.53
2018-12-11T18:49:19.488Z,102155.34
2018-12-11T18:52:36.735Z,102156.23
2018-12-11T18:55:54.026Z,102160.55
2018-12-11T18:59:11.432Z,102164.91
2018-12-11T19:02:28.924Z,102159.73
2018-12-11T19:05:36.516Z,102163.61
2018-12-11T19:08:44.032Z,102160.58
2018-12-11T19:11:51.804Z,102163.59
2018-12-11T19:15:04.710Z,102177.78
2018-12-11T19:18:09.159Z,102177.34
2018-12-11T19:21:16.939Z,102173.09
2018-12-11T19:24:45.998Z,102180.03
2018-12-11T19:27:53.484Z,102185.12
2018-12-11T19:31:10.668Z,102198.44
2018-12-11T19:34:27.932Z,102198.06
2018-12-11T19:37:45.225Z,102192.52
2018-12-11T19:41:02.500Z,102198.09
2018-12-11T19:44:19.813Z,102194.64
2018-12-11T19:47:37.115Z,102192.47
2018-12-11T19:50:54.403Z,102194.20
2018-12-11T19:54:12.136Z,102188.19
2018-12-11T19:57:19.591Z,102195.48
2018-12-11T20:00:27.079Z,102200.25
2018-12-11T20:03:34.560Z,102204.13
2018-12-11T20:06:42.444Z,102208.84
2018-12-11T20:09:55.031Z,102214.46
2018-12-11T20:13:02.488Z,102219.19
2018-12-11T20:16:09.956Z,102223.48
2018-12-11T20:19:27.412Z,102225.18
2018-12-11T20:22:45.068Z,102229.92
2018-12-11T20:25:52.568Z,102231.62
2018-12-11T20:29:00.039Z,102230.35
2018-12-11T20:32:07.536Z,102227.31
2018-12-11T20:35:15.038Z,102222.64
2018-12-11T20:38:32.293Z,102225.67
2018-12-11T20:41:49.613Z,102234.70
2018-12-11T20:45:08.176Z,102238.16
2018-12-11T20:48:15.677Z,102236.42
2018-12-11T20:51:33.166Z,102233.85
2018-12-11T20:54:50.485Z,102231.72
2018-12-11T20:58:07.959Z,102240.75
2018-12-11T21:01:25.120Z,102233.84
2018-12-11T21:04:42.380Z,102236.87
2018-12-11T21:07:59.716Z,102241.60
2018-12-11T21:11:16.937Z,102251.91
2018-12-11T21:14:34.772Z,102254.48
2018-12-11T21:17:49.257Z,102254.07
2018-12-11T21:20:57.148Z,102254.47
2018-12-11T21:24:05.492Z,102257.91
2018-12-11T21:27:22.733Z,102252.76
2018-12-11T21:30:40.068Z,102258.77
2018-12-11T21:33:57.889Z,102256.63
2018-12-11T21:37:15.608Z,102263.90
2018-12-11T21:40:33.524Z,102263.91
2018-12-11T21:43:40.946Z,102271.63
2018-12-11T21:46:48.964Z,102279.36
2018-12-11T21:49:56.541Z,102282.34
2018-12-11T21:53:14.496Z,102277.61
2018-12-11T21:56:32.228Z,102277.19
2018-12-11T21:59:50.174Z,102273.77
2018-12-11T22:02:57.648Z,102282.37
2018-12-11T22:06:05.584Z,102287.50
2018-12-11T22:09:13.176Z,102293.07
2018-12-11T22:12:31.268Z,102297.38
2018-12-11T22:15:38.935Z,102294.84
2018-12-11T22:18:46.415Z,102293.12
2018-12-11T22:21:53.894Z,102291.40
2018-12-11T22:25:01.836Z,102301.69
2018-12-11T22:28:09.424Z,102293.07
2018-12-11T22:31:17.054Z,102307.69
2018-12-11T22:34:24.635Z,102311.55
2018-12-11T22:37:42.460Z,102307.25
2018-12-11T22:41:00.292Z,102309.38
2018-12-11T22:44:17.948Z,102307.16
2018-12-11T22:47:35.748Z,102297.68
2018-12-11T22:50:54.156Z,102304.57
2018-12-11T22:54:02.264Z,102305.43
2018-12-11T22:57:20.157Z,102307.54
2018-12-11T23:00:40.635Z,102310.52
2018-12-11T23:03:48.108Z,102310.95
2018-12-11T23:06:55.572Z,102319.04
2018-12-11T23:10:13.839Z,102324.55
2018-12-11T23:13:21.417Z,102330.48
2018-12-11T23:16:29.404Z,102329.71
2018-12-11T23:19:47.283Z,102324.94
2018-12-11T23:22:54.756Z,102330.55
2018-12-11T23:26:02.257Z,102335.23
2018-12-11T23:29:09.880Z,102343.83
2018-12-11T23:32:17.442Z,102341.31
2018-12-11T23:35:35.638Z,102347.38
2018-12-11T23:38:43.305Z,102339.27
2018-12-11T23:41:50.884Z,102337.59
2018-12-11T23:44:58.359Z,102338.05
2018-12-11T23:48:16.315Z,102347.42
2018-12-11T23:51:34.183Z,102341.03
2018-12-11T23:54:51.964Z,102341.52
2018-12-11T23:58:11.191Z,102343.21
